createdAt,value
2023-03-07T00:01:32.346Z,65.83
2023-03-07T00:04:00.749Z,66.08
2023-03-07T00:06:30.407Z,66.26
2023-03-07T00:08:59.892Z,66.45
2023-03-07T00:11:30.419Z,66.66
2023-03-07T00:13:59.482Z,66.83
2023-03-07T00:16:27.670Z,67.03
2023-03-07T00:18:57.167Z,67.18
2023-03-07T00:21:27.494Z,67.47
2023-03-07T00:23:55.598Z,67.50
2023-03-07T00:26:24.464Z,67.57
2023-03-07T00:28:55.771Z,67.69
2023-03-07T00:31:24.459Z,67.77
2023-03-07T00:33:54.402Z,67.67
2023-03-07T00:36:23.533Z,67.83
2023-03-07T00:38:55.252Z,68.02
2023-03-07T00:41:27.653Z,68.01
2023-03-07T00:43:55.795Z,68.03
2023-03-07T00:46:24.480Z,68.28
2023-03-07T00:48:53.329Z,68.36
2023-03-07T00:51:28.713Z,68.31
2023-03-07T00:53:57.949Z,68.50
2023-03-07T00:56:26.883Z,68.33
2023-03-07T00:58:55.617Z,68.10
2023-03-07T01:01:24.856Z,68.27
2023-03-07T01:03:53.994Z,68.13
2023-03-07T01:06:25.570Z,68.22
2023-03-07T01:08:56.749Z,68.29
2023-03-07T01:11:27.355Z,68.68
2023-03-07T01:13:57.454Z,68.83
2023-03-07T01:16:28.107Z,69.18
2023-03-07T01:18:58.024Z,69.46
2023-03-07T01:21:30.395Z,69.61
2023-03-07T01:23:59.809Z,69.79
2023-03-07T01:26:31.194Z,70.02
2023-03-07T01:29:01.789Z,69.97
2023-03-07T01:31:32.780Z,69.96
2023-03-07T01:34:03.434Z,70.06
2023-03-07T01:36:34.981Z,70.18
2023-03-07T01:39:08.216Z,70.19
2023-03-07T01:41:39.646Z,70.40
2023-03-07T01:44:17.839Z,70.89
2023-03-07T01:46:50.670Z,71.09
2023-03-07T01:49:29.330Z,71.52
2023-03-07T01:52:12.127Z,71.70
2023-03-07T01:55:00.296Z,71.85
2023-03-07T01:57:33.356Z,72.03
2023-03-07T02:00:08.677Z,72.12
2023-03-07T02:02:45.787Z,72.41
2023-03-07T02:05:50.363Z,72.67
2023-03-07T02:08:19.099Z,72.97
2023-03-07T02:10:53.572Z,73.34
2023-03-07T02:13:22.492Z,73.69
2023-03-07T02:15:58.576Z,73.95
2023-03-07T02:18:33.142Z,74.02
2023-03-07T02:21:23.369Z,74.18
2023-03-07T02:24:05.385Z,74.36
2023-03-07T02:26:51.877Z,74.59
2023-03-07T02:29:24.447Z,74.78
2023-03-07T02:31:53.165Z,75.15
2023-03-07T02:34:28.858Z,75.53
2023-03-07T02:37:14.130Z,75.79
2023-03-07T02:39:46.608Z,76.18
2023-03-07T02:42:22.506Z,76.43
2023-03-07T02:45:00.805Z,76.56
2023-03-07T02:47:34.968Z,76.55
2023-03-07T02:50:04.130Z,76.60
2023-03-07T02:52:33.247Z,76.40
2023-03-07T02:55:01.383Z,76.35
2023-03-07T02:57:34.008Z,76.25
2023-03-07T03:00:07.562Z,76.51
2023-03-07T03:02:35.919Z,76.73
2023-03-07T03:05:10.068Z,76.87
2023-03-07T03:07:38.988Z,77.09
2023-03-07T03:10:07.772Z,77.25
2023-03-07T03:12:37.598Z,77.09
2023-03-07T03:15:08.478Z,77.04
2023-03-07T03:17:37.464Z,76.89
2023-03-07T03:20:08.089Z,77.00
2023-03-07T03:22:41.456Z,76.99
2023-03-07T03:25:11.531Z,77.10
2023-03-07T03:27:41.112Z,77.39
2023-03-07T03:30:11.425Z,77.44
2023-03-07T03:32:40.785Z,77.64
2023-03-07T03:35:09.931Z,78.06
2023-03-07T03:37:38.444Z,78.03
2023-03-07T03:40:14.737Z,78.13
2023-03-07T03:42:44.884Z,78.17
2023-03-07T03:45:15.594Z,78.11
2023-03-07T03:47:43.745Z,78.15
2023-03-07T03:50:17.492Z,78.44
2023-03-07T03:52:47.533Z,78.75
2023-03-07T03:55:16.286Z,78.92
2023-03-07T03:57:45.632Z,79.25
2023-03-07T04:00:15.052Z,79.50
2023-03-07T04:02:43.831Z,79.60
2023-03-07T04:05:13.380Z,79.60
2023-03-07T04:07:41.940Z,79.60
2023-03-07T04:10:10.940Z,79.52
2023-03-07T04:12:41.750Z,79.64
2023-03-07T04:15:10.319Z,79.77
2023-03-07T04:17:42.111Z,79.85
2023-03-07T04:20:17.734Z,79.96
2023-03-07T04:22:47.298Z,80.13
2023-03-07T04:25:15.731Z,80.13
2023-03-07T04:27:44.384Z,80.24
2023-03-07T04:30:13.160Z,80.17
2023-03-07T04:32:43.003Z,80.30
2023-03-07T04:35:11.197Z,80.26
2023-03-07T04:37:39.776Z,80.46
2023-03-07T04:40:08.886Z,80.80
2023-03-07T04:42:38.122Z,80.80
2023-03-07T04:45:07.180Z,81.12
2023-03-07T04:47:35.900Z,81.08
2023-03-07T04:50:05.929Z,81.26
2023-03-07T04:52:35.658Z,81.23
2023-03-07T04:55:04.361Z,81.00
2023-03-07T04:57:32.906Z,81.04
2023-03-07T05:00:03.348Z,80.97
2023-03-07T05:02:31.862Z,81.09
2023-03-07T05:05:03.902Z,81.26
2023-03-07T05:07:33.454Z,81.36
2023-03-07T05:10:02.027Z,81.35
2023-03-07T05:12:33.406Z,81.31
2023-03-07T05:15:01.726Z,81.04
2023-03-07T05:17:30.891Z,80.72
2023-03-07T05:20:02.962Z,80.58
2023-03-07T05:22:42.994Z,80.42
2023-03-07T05:25:13.120Z,80.26
2023-03-07T05:27:41.946Z,80.28
2023-03-07T05:30:12.974Z,79.80
2023-03-07T05:32:41.725Z,79.89
2023-03-07T05:35:12.569Z,79.22
2023-03-07T05:37:42.598Z,78.81
2023-03-07T05:40:12.526Z,78.58
2023-03-07T05:42:43.947Z,78.30
2023-03-07T05:45:13.681Z,78.00
2023-03-07T05:47:43.806Z,77.49
2023-03-07T05:50:14.099Z,77.15
2023-03-07T05:52:43.313Z,77.07
2023-03-07T05:55:11.922Z,76.87
2023-03-07T05:57:41.050Z,76.54
2023-03-07T06:00:11.574Z,76.81
2023-03-07T06:02:47.156Z,76.94
2023-03-07T06:05:16.849Z,76.68
2023-03-07T06:07:50.261Z,76.05
2023-03-07T06:10:18.920Z,75.38
2023-03-07T06:12:56.396Z,74.72
2023-03-07T06:15:27.186Z,73.98
2023-03-07T06:18:00.775Z,73.16
2023-03-07T06:20:29.136Z,72.65
2023-03-07T06:22:58.130Z,72.63
2023-03-07T06:25:26.787Z,72.51
2023-03-07T06:27:59.791Z,72.66
2023-03-07T06:30:28.760Z,72.52
2023-03-07T06:32:57.055Z,72.74
2023-03-07T06:35:32.012Z,72.85
2023-03-07T06:38:00.449Z,72.16
2023-03-07T06:40:28.628Z,71.90
2023-03-07T06:42:56.857Z,71.33
2023-03-07T06:45:25.321Z,71.32
2023-03-07T06:48:00.382Z,70.80
2023-03-07T06:50:35.121Z,70.92
2023-03-07T06:53:05.187Z,70.56
2023-03-07T06:55:34.860Z,70.36
2023-03-07T06:58:03.995Z,70.44
2023-03-07T07:00:32.538Z,70.49
2023-03-07T07:03:01.134Z,70.21
2023-03-07T07:05:29.630Z,70.08
2023-03-07T07:07:58.008Z,69.48
2023-03-07T07:10:26.976Z,69.33
2023-03-07T07:12:56.857Z,69.34
2023-03-07T07:15:31.279Z,69.58
2023-03-07T07:18:02.242Z,69.70
2023-03-07T07:20:36.508Z,69.47
2023-03-07T07:23:05.529Z,69.82
2023-03-07T07:25:34.486Z,69.95
2023-03-07T07:28:03.337Z,70.10
2023-03-07T07:30:32.631Z,70.04
2023-03-07T07:33:03.560Z,69.83
2023-03-07T07:35:32.638Z,67.97
2023-03-07T07:38:03.712Z,66.64
2023-03-07T07:40:33.049Z,64.91
2023-03-07T07:43:01.870Z,64.01
2023-03-07T07:45:49.454Z,63.43
2023-03-07T07:48:21.549Z,63.78
2023-03-07T07:50:49.896Z,64.28
2023-03-07T07:53:18.403Z,64.15
2023-03-07T07:55:49.161Z,63.80
2023-03-07T07:58:20.904Z,63.84
2023-03-07T08:00:49.876Z,63.47
2023-03-07T08:03:18.949Z,63.62
2023-03-07T08:05:48.630Z,63.83
2023-03-07T08:08:18.657Z,63.78
2023-03-07T08:10:47.137Z,62.82
2023-03-07T08:13:18.204Z,61.70
2023-03-07T08:15:48.863Z,60.92
2023-03-07T08:18:18.565Z,60.41
2023-03-07T08:20:48.147Z,59.67
2023-03-07T08:23:16.407Z,59.11
2023-03-07T08:25:45.095Z,58.71
2023-03-07T08:28:15.804Z,58.86
2023-03-07T08:30:44.475Z,58.42
2023-03-07T08:33:14.406Z,58.22
2023-03-07T08:35:44.251Z,58.08
2023-03-07T08:38:12.765Z,58.21
2023-03-07T08:40:41.176Z,58.08
2023-03-07T08:43:10.593Z,57.82
2023-03-07T08:45:41.774Z,57.62
2023-03-07T08:48:11.332Z,58.11
2023-03-07T08:50:39.605Z,58.05
2023-03-07T08:53:08.658Z,57.65
2023-03-07T08:55:36.951Z,56.89
2023-03-07T08:58:06.563Z,56.61
2023-03-07T09:00:35.689Z,55.98
2023-03-07T09:03:04.516Z,55.86
2023-03-07T09:05:32.960Z,56.00
2023-03-07T09:08:02.141Z,55.76
2023-03-07T09:10:32.454Z,55.93
2023-03-07T09:13:01.336Z,56.18
2023-03-07T09:15:30.035Z,56.01
2023-03-07T09:17:58.690Z,56.27
2023-03-07T09:20:27.071Z,56.46
2023-03-07T09:22:55.354Z,56.84
2023-03-07T09:25:24.871Z,57.13
2023-03-07T09:27:54.517Z,56.64
2023-03-07T09:30:25.557Z,56.71
2023-03-07T09:32:54.028Z,56.54
2023-03-07T09:35:23.659Z,56.21
2023-03-07T09:37:52.121Z,56.46
2023-03-07T09:40:23.960Z,56.36
2023-03-07T09:42:58.851Z,56.23
2023-03-07T09:45:32.882Z,55.66
2023-03-07T09:48:25.961Z,55.78
2023-03-07T09:51:07.567Z,56.06
2023-03-07T09:53:55.095Z,56.48
2023-03-07T09:56:39.698Z,56.09
2023-03-07T09:59:36.410Z,55.84
2023-03-07T10:02:30.781Z,54.75
2023-03-07T10:05:02.922Z,53.60
2023-03-07T10:07:33.476Z,53.16
2023-03-07T10:10:24.978Z,52.57
2023-03-07T10:13:39.270Z,52.85
2023-03-07T10:16:25.224Z,53.00
2023-03-07T10:19:24.226Z,53.10
2023-03-07T10:22:04.653Z,52.69
2023-03-07T10:24:52.953Z,52.76
2023-03-07T10:27:26.565Z,53.16
2023-03-07T10:29:56.492Z,53.57
2023-03-07T10:32:43.634Z,53.57
2023-03-07T10:35:13.795Z,53.48
2023-03-07T10:37:53.892Z,51.86
2023-03-07T10:40:30.721Z,50.42
2023-03-07T10:42:58.919Z,50.06
2023-03-07T10:45:29.491Z,49.44
2023-03-07T10:48:08.382Z,48.65
2023-03-07T10:50:51.406Z,47.35
2023-03-07T10:53:29.346Z,47.63
2023-03-07T10:56:10.082Z,47.24
2023-03-07T10:59:05.395Z,47.17
2023-03-07T11:01:33.916Z,47.01
2023-03-07T11:04:06.708Z,46.42
2023-03-07T11:06:44.804Z,45.63
2023-03-07T11:14:49.182Z,45.93
2023-03-07T11:17:27.200Z,46.38
2023-03-07T11:19:56.464Z,46.86
2023-03-07T11:22:35.875Z,47.26
2023-03-07T11:25:13.785Z,47.30
2023-03-07T11:27:45.556Z,47.98
2023-03-07T11:30:20.040Z,48.23
2023-03-07T11:33:26.116Z,48.74
2023-03-07T11:36:01.886Z,49.01
2023-03-07T11:39:04.026Z,49.19
2023-03-07T11:42:35.428Z,49.55
2023-03-07T11:45:07.655Z,49.93
2023-03-07T11:47:44.658Z,49.65
2023-03-07T11:50:29.039Z,49.82
2023-03-07T11:53:15.680Z,49.62
2023-03-07T11:55:46.761Z,49.18
2023-03-07T11:58:19.775Z,49.10
2023-03-07T12:01:22.298Z,49.39
2023-03-07T12:03:53.984Z,49.52
2023-03-07T12:06:24.672Z,49.11
2023-03-07T12:09:28.113Z,49.14
2023-03-07T12:12:00.269Z,48.68
2023-03-07T12:14:55.372Z,48.74
2023-03-07T12:17:46.375Z,48.86
2023-03-07T12:20:15.235Z,49.08
2023-03-07T12:23:00.159Z,48.72
2023-03-07T12:25:33.149Z,48.57
2023-03-07T12:28:10.893Z,48.70
2023-03-07T12:30:53.784Z,48.98
2023-03-07T12:33:52.989Z,49.04
2023-03-07T12:37:10.927Z,49.04
2023-03-07T12:39:47.195Z,49.21
2023-03-07T12:42:43.167Z,49.32
2023-03-07T12:45:13.249Z,49.35
2023-03-07T12:47:47.453Z,49.41
2023-03-07T12:50:47.575Z,49.57
2023-03-07T12:53:30.816Z,49.57
2023-03-07T12:56:15.868Z,49.76
2023-03-07T12:58:52.700Z,49.74
2023-03-07T13:01:27.184Z,50.50
2023-03-07T13:03:57.283Z,50.97
2023-03-07T13:06:25.472Z,51.09
2023-03-07T13:09:04.194Z,51.14
2023-03-07T13:11:34.198Z,51.23
2023-03-07T13:14:07.407Z,51.39
2023-03-07T13:16:45.202Z,51.38
2023-03-07T13:19:35.833Z,51.44
2023-03-07T13:22:29.689Z,50.75
2023-03-07T13:25:00.665Z,50.00
2023-03-07T13:27:54.845Z,49.68
2023-03-07T13:30:32.607Z,49.39
2023-03-07T13:33:10.601Z,48.86
2023-03-07T13:35:48.585Z,48.54
2023-03-07T13:38:44.401Z,48.74
2023-03-07T13:41:13.406Z,48.35
2023-03-07T13:43:45.439Z,48.37
2023-03-07T13:46:40.939Z,48.05
2023-03-07T13:49:12.860Z,47.85
2023-03-07T13:52:15.770Z,47.83
2023-03-07T13:54:44.224Z,47.65
2023-03-07T13:57:17.925Z,47.66
2023-03-07T13:59:53.275Z,47.67
2023-03-07T14:02:21.891Z,47.65
2023-03-07T14:04:54.653Z,47.43
2023-03-07T14:07:40.537Z,47.48
2023-03-07T14:10:22.682Z,47.35
2023-03-07T14:13:15.194Z,47.41
2023-03-07T14:15:53.157Z,47.19
2023-03-07T14:18:49.872Z,47.40
2023-03-07T14:21:40.332Z,47.50
2023-03-07T14:24:33.742Z,47.40
2023-03-07T14:27:06.944Z,47.07
2023-03-07T14:29:36.144Z,47.22
2023-03-07T14:32:04.616Z,47.13
2023-03-07T14:34:36.103Z,47.04
2023-03-07T14:37:22.036Z,47.10
2023-03-07T14:40:19.184Z,46.49
2023-03-07T14:42:59.858Z,46.14
2023-03-07T14:45:31.007Z,45.41
2023-03-07T14:48:21.717Z,45.51
2023-03-07T14:50:50.192Z,45.30
2023-03-07T14:53:29.339Z,45.30
2023-03-07T14:55:58.991Z,45.13
2023-03-07T14:58:28.593Z,45.42
2023-03-07T15:01:20.941Z,45.24
2023-03-07T15:03:53.562Z,45.33
2023-03-07T15:06:36.265Z,45.74
2023-03-07T15:09:04.646Z,46.15
2023-03-07T15:11:36.205Z,46.15
2023-03-07T15:14:10.663Z,45.98
2023-03-07T15:16:50.467Z,46.24
2023-03-07T15:19:20.763Z,46.31
2023-03-07T15:21:57.332Z,46.34
2023-03-07T15:24:39.206Z,46.38
2023-03-07T15:27:10.855Z,46.58
2023-03-07T15:29:45.981Z,46.37
2023-03-07T15:32:35.008Z,46.43
2023-03-07T15:35:12.534Z,46.47
2023-03-07T15:37:53.601Z,46.52
2023-03-07T15:40:23.855Z,46.60
2023-03-07T15:43:24.989Z,46.57
2023-03-07T15:46:06.346Z,46.47
2023-03-07T15:48:37.882Z,46.69
2023-03-07T15:51:09.940Z,46.92
2023-03-07T15:53:40.070Z,47.36
2023-03-07T15:56:27.869Z,48.13
2023-03-07T15:58:59.680Z,48.97
2023-03-07T16:01:33.613Z,49.98
2023-03-07T16:04:05.499Z,50.87
2023-03-07T16:06:44.290Z,51.43
2023-03-07T16:09:14.520Z,52.56
2023-03-07T16:11:43.269Z,53.38
2023-03-07T16:14:30.623Z,53.96
2023-03-07T16:17:04.786Z,54.80
2023-03-07T16:19:33.201Z,55.62
2023-03-07T16:22:01.413Z,56.41
2023-03-07T16:24:30.286Z,57.20
2023-03-07T16:26:59.098Z,57.68
2023-03-07T16:29:27.273Z,58.28
2023-03-07T16:31:55.478Z,58.85
2023-03-07T16:34:27.542Z,59.17
2023-03-07T16:36:56.636Z,59.89
2023-03-07T16:39:25.231Z,60.54
2023-03-07T16:41:53.598Z,60.93
2023-03-07T16:44:22.206Z,61.58
2023-03-07T16:47:14.790Z,62.17
2023-03-07T16:49:44.142Z,62.83
2023-03-07T16:52:16.111Z,63.15
2023-03-07T16:54:47.225Z,63.68
2023-03-07T16:57:18.627Z,63.96
2023-03-07T17:00:07.580Z,64.53
2023-03-07T17:02:37.578Z,64.83
2023-03-07T17:05:28.869Z,64.99
2023-03-07T17:07:57.994Z,65.51
2023-03-07T17:10:29.384Z,65.86
2023-03-07T17:13:01.376Z,66.39
2023-03-07T17:15:31.467Z,66.58
2023-03-07T17:18:02.032Z,66.90
2023-03-07T17:20:37.505Z,67.34
2023-03-07T17:23:06.816Z,67.74
2023-03-07T17:25:35.893Z,68.12
2023-03-07T17:28:20.184Z,68.31
2023-03-07T17:30:50.538Z,68.57
2023-03-07T17:33:21.897Z,69.16
2023-03-07T17:35:51.774Z,70.25
2023-03-07T17:38:21.155Z,70.94
2023-03-07T17:41:14.722Z,71.44
2023-03-07T17:43:48.508Z,71.92
2023-03-07T17:46:18.793Z,72.63
2023-03-07T17:48:49.209Z,73.00
2023-03-07T17:51:19.110Z,73.64
2023-03-07T17:53:48.796Z,74.06
2023-03-07T17:56:18.251Z,74.10
2023-03-07T17:58:48.384Z,74.27
2023-03-07T18:01:16.695Z,74.70
2023-03-07T18:03:48.872Z,75.00
2023-03-07T18:06:19.105Z,75.49
2023-03-07T18:08:48.284Z,75.38
2023-03-07T18:11:17.365Z,75.31
2023-03-07T18:13:45.688Z,75.48
2023-03-07T18:16:15.627Z,75.81
2023-03-07T18:18:58.281Z,76.03
2023-03-07T18:21:30.937Z,76.20
2023-03-07T18:23:59.371Z,76.36
2023-03-07T18:26:32.284Z,76.48
2023-03-07T18:29:03.111Z,76.78
2023-03-07T18:31:31.704Z,76.93
2023-03-07T18:34:03.334Z,77.84
2023-03-07T18:36:31.889Z,78.13
2023-03-07T18:39:02.340Z,78.87
2023-03-07T18:41:36.404Z,79.42
2023-03-07T18:44:05.444Z,79.70
2023-03-07T18:46:39.980Z,79.46
2023-03-07T18:49:08.496Z,79.10
2023-03-07T18:51:38.398Z,78.63
2023-03-07T18:54:10.554Z,78.68
2023-03-07T18:56:39.880Z,79.04
2023-03-07T18:59:12.048Z,79.15
2023-03-07T19:01:40.559Z,79.29
2023-03-07T19:04:11.452Z,79.52
2023-03-07T19:06:50.512Z,79.59
2023-03-07T19:09:19.741Z,79.87
2023-03-07T19:11:49.150Z,80.08
2023-03-07T19:14:18.549Z,80.39
2023-03-07T19:16:47.250Z,80.60
2023-03-07T19:19:23.350Z,80.80
2023-03-07T19:21:52.384Z,81.00
2023-03-07T19:24:20.692Z,80.81
2023-03-07T19:26:49.015Z,81.16
2023-03-07T19:29:17.599Z,81.26
2023-03-07T19:31:46.404Z,81.43
2023-03-07T19:34:17.256Z,81.79
2023-03-07T19:36:47.524Z,82.30
2023-03-07T19:39:20.694Z,82.20
2023-03-07T19:41:50.433Z,82.17
2023-03-07T19:44:20.185Z,82.71
2023-03-07T19:46:49.048Z,82.53
2023-03-07T19:49:23.931Z,81.90
2023-03-07T19:51:52.634Z,81.56
2023-03-07T19:54:22.782Z,81.39
2023-03-07T19:56:51.559Z,81.26
2023-03-07T19:59:22.701Z,81.21
2023-03-07T20:01:51.544Z,81.12
2023-03-07T20:04:19.980Z,81.42
2023-03-07T20:06:52.543Z,81.83
2023-03-07T20:09:24.522Z,81.98
2023-03-07T20:11:53.671Z,82.16
2023-03-07T20:14:23.371Z,82.15
2023-03-07T20:16:54.103Z,81.90
2023-03-07T20:19:29.292Z,81.46
2023-03-07T20:22:00.007Z,81.49
2023-03-07T20:24:33.210Z,81.53
2023-03-07T20:27:22.290Z,81.65
2023-03-07T20:29:52.643Z,81.56
2023-03-07T20:32:23.692Z,81.78
2023-03-07T20:35:03.201Z,82.10
2023-03-07T20:37:33.334Z,82.16
2023-03-07T20:40:03.100Z,82.55
2023-03-07T20:42:33.530Z,82.53
2023-03-07T20:45:02.386Z,82.53
2023-03-07T20:47:33.639Z,82.52
2023-03-07T20:50:05.323Z,82.47
2023-03-07T20:52:36.241Z,82.05
2023-03-07T20:55:05.475Z,82.18
2023-03-07T20:57:34.129Z,82.30
2023-03-07T21:00:07.336Z,82.42
2023-03-07T21:02:46.543Z,82.56
2023-03-07T21:05:16.370Z,83.14
2023-03-07T21:07:47.699Z,83.42
2023-03-07T21:10:16.216Z,83.44
2023-03-07T21:12:45.514Z,83.28
2023-03-07T21:15:15.120Z,82.97
2023-03-07T21:17:43.784Z,82.78
2023-03-07T21:20:12.944Z,82.99
2023-03-07T21:22:41.650Z,83.00
2023-03-07T21:25:15.166Z,83.14
2023-03-07T21:27:43.604Z,83.42
2023-03-07T21:30:12.376Z,83.49
2023-03-07T21:32:40.866Z,83.76
2023-03-07T21:35:09.773Z,83.99
2023-03-07T21:37:44.295Z,83.76
2023-03-07T21:40:13.306Z,83.50
2023-03-07T21:42:41.522Z,83.61
2023-03-07T21:45:11.140Z,83.55
2023-03-07T21:47:41.203Z,83.22
2023-03-07T21:50:12.902Z,83.05
2023-03-07T21:52:41.288Z,82.89
2023-03-07T21:55:10.669Z,83.18
2023-03-07T21:57:39.024Z,82.96
2023-03-07T22:00:08.886Z,83.31
2023-03-07T22:02:37.342Z,82.85
2023-03-07T22:05:06.318Z,82.78
2023-03-07T22:07:39.006Z,82.96
2023-03-07T22:10:08.108Z,82.69
2023-03-07T22:12:36.491Z,82.45
2023-03-07T22:15:06.838Z,82.07
2023-03-07T22:17:38.361Z,81.83
2023-03-07T22:20:06.885Z,81.86
2023-03-07T22:22:35.159Z,81.60
2023-03-07T22:25:04.234Z,81.79
2023-03-07T22:27:33.092Z,81.74
2023-03-07T22:30:02.155Z,81.54
2023-03-07T22:32:31.132Z,81.67
2023-03-07T22:34:59.316Z,81.48
2023-03-07T22:37:28.116Z,81.44
2023-03-07T22:39:56.407Z,81.74
2023-03-07T22:42:24.989Z,81.41
2023-03-07T22:44:54.765Z,80.95
2023-03-07T22:47:24.378Z,81.17
2023-03-07T22:49:52.546Z,81.03
2023-03-07T22:52:20.672Z,81.15
2023-03-07T22:54:49.388Z,81.21
2023-03-07T22:57:17.620Z,81.40
2023-03-07T22:59:50.926Z,81.69
2023-03-07T23:02:19.360Z,81.80
2023-03-07T23:04:51.671Z,81.68
2023-03-07T23:07:21.044Z,81.66
2023-03-07T23:09:49.253Z,81.41
2023-03-07T23:12:20.201Z,81.87
2023-03-07T23:14:49.695Z,81.72
2023-03-07T23:17:18.993Z,82.01
2023-03-07T23:19:48.037Z,82.41
2023-03-07T23:22:16.230Z,82.71
2023-03-07T23:24:46.364Z,82.99
2023-03-07T23:27:15.034Z,83.24
2023-03-07T23:31:36.704Z,83.35
2023-03-07T23:34:21.504Z,83.40
2023-03-07T23:36:57.414Z,83.32
2023-03-07T23:39:25.925Z,83.21
2023-03-07T23:41:54.128Z,83.54
2023-03-07T23:44:22.845Z,83.72
2023-03-07T23:46:51.041Z,84.02
2023-03-07T23:49:19.132Z,84.32
2023-03-07T23:51:47.807Z,84.46
2023-03-07T23:54:16.330Z,84.84
2023-03-07T23:56:46.320Z,84.97
2023-03-07T23:59:16.454Z,85.14
